KMUI/MUI METAR and TAF weather

Enter ICAO airport designator
Station Type Date Time Source
KMUI METAR 2019/12/14 17:14 UTC NOAA

KMUI 141714Z AUTO 00000KT 1 1/2SM RA BR OVC002 09/09 A2927 RMK AO2 VIS 1V1 1/2 SLP916 $


Station Type Date Time Source
KMUI Decoded METAR 2019/12/14 17:14 UTC NOAA

Muir Army Air Field / Indiantown, PA, United States (KMUI) 40-26N 076-34W
Dec 14, 2019 - 12:14 PM EST / 2019.12.14 1714 UTC
Wind: Calm:0
Visibility: 1 1/2 mile(s):0
Sky conditions: overcast
Weather: rain; mist
Temperature: 48 F (9 C)
Dew Point: 48 F (9 C)
Relative Humidity: 100%
Pressure (altimeter): 29.27 in. Hg (991 hPa)
ob: KMUI 141714Z AUTO 00000KT 1 1/2SM RA BR OVC002 09/09 A2927 RMK AO2 VIS 1V1 1/2 SLP916
cycle: 17

Station Type Date Time Source
KMUI TAF 2019/12/13 15:51 UTC NOAA

TAF COR KMUI 131700Z 1315/1417 10006KT 9999 OVC014 QNH3029INS
BECMG 1316/1317 06006KT 4800 -RA BR OVC006 650808 QNH3006INS
BECMG 1323/1324 08006KT 3200 -RA BR OVC005 QNH3002INS TX05/1408Z TN01/1315Z LAST NO
AMDS AFT 1317 NEXT 1611

Example: see airport list